createdAt,value
2023-01-31T00:03:08.744Z,98173.20
2023-01-31T00:08:10.538Z,98176.77
2023-01-31T00:13:13.217Z,98176.19
2023-01-31T00:18:14.909Z,98173.60
2023-01-31T00:23:17.003Z,98175.77
2023-01-31T00:28:18.714Z,98180.05
2023-01-31T00:33:20.388Z,98184.60
2023-01-31T00:38:22.753Z,98181.99
2023-01-31T00:43:27.348Z,98185.77
2023-01-31T00:48:29.192Z,98195.73
2023-01-31T00:53:31.543Z,98197.45
2023-01-31T00:58:33.793Z,98202.71
2023-01-31T01:03:37.570Z,98210.98
2023-01-31T01:08:41.001Z,98214.52
2023-01-31T01:13:44.892Z,98233.65
2023-01-31T01:18:49.249Z,98231.73
2023-01-31T01:23:52.082Z,98241.07
2023-01-31T01:28:55.709Z,98233.36
2023-01-31T01:33:59.421Z,98248.09
2023-01-31T01:39:01.165Z,98259.96
2023-01-31T01:44:25.178Z,98282.29
2023-01-31T01:49:36.696Z,98275.34
2023-01-31T01:55:03.510Z,98265.92
2023-01-31T02:00:27.564Z,98256.20
2023-01-31T02:05:33.246Z,98261.41
2023-01-31T02:10:49.760Z,98259.14
2023-01-31T02:15:51.535Z,98258.10
2023-01-31T02:21:25.056Z,98263.52
2023-01-31T02:26:48.380Z,98275.05
2023-01-31T02:32:00.477Z,98279.02
2023-01-31T02:37:17.005Z,98286.52
2023-01-31T02:42:28.552Z,98283.75
2023-01-31T02:47:49.170Z,98288.29
2023-01-31T02:53:06.544Z,98308.51
2023-01-31T02:58:12.317Z,98312.86
2023-01-31T03:03:22.907Z,98316.00
2023-01-31T03:08:24.926Z,98326.23
2023-01-31T03:13:54.528Z,98335.72
2023-01-31T03:19:14.284Z,98353.17
2023-01-31T03:24:18.205Z,98360.98
2023-01-31T03:29:20.838Z,98383.42
2023-01-31T03:34:22.980Z,98404.97
2023-01-31T03:39:49.987Z,98404.22
2023-01-31T03:44:59.525Z,98405.40
2023-01-31T03:50:10.695Z,98399.88
2023-01-31T03:55:22.064Z,98440.08
2023-01-31T04:00:25.607Z,98449.54
2023-01-31T04:05:32.471Z,98444.80
2023-01-31T04:10:35.838Z,98442.60
2023-01-31T04:15:37.867Z,98443.34
2023-01-31T04:20:39.585Z,98449.03
2023-01-31T04:25:41.296Z,98455.73
2023-01-31T04:30:43.025Z,98459.38
2023-01-31T04:35:44.733Z,98462.04
2023-01-31T04:40:46.515Z,98472.37
2023-01-31T04:45:49.233Z,98475.16
2023-01-31T04:50:50.953Z,98483.39
2023-01-31T04:55:55.990Z,98487.23
2023-01-31T05:00:58.117Z,98497.79
2023-01-31T05:06:00.160Z,98510.70
2023-01-31T05:11:04.444Z,98522.48
2023-01-31T05:16:11.671Z,98532.40
2023-01-31T05:21:13.562Z,98531.67
2023-01-31T05:26:15.476Z,98533.94
2023-01-31T05:31:17.279Z,98538.35
2023-01-31T05:36:19.076Z,98538.36
2023-01-31T05:41:20.774Z,98544.05
2023-01-31T05:46:22.529Z,98545.42
2023-01-31T05:51:24.240Z,98556.23
2023-01-31T05:56:26.050Z,98571.36
2023-01-31T06:01:27.744Z,98577.46
2023-01-31T06:06:29.437Z,98586.83
2023-01-31T06:11:31.197Z,98589.41
2023-01-31T06:16:33.242Z,98597.55
2023-01-31T06:21:35.239Z,98606.53
2023-01-31T06:26:36.942Z,98616.94
2023-01-31T06:31:39.123Z,98627.50
2023-01-31T06:36:41.527Z,98630.58
2023-01-31T06:41:51.522Z,98639.87
2023-01-31T06:46:56.119Z,98643.84
2023-01-31T06:51:57.981Z,98651.58
2023-01-31T06:56:59.987Z,98659.79
2023-01-31T07:02:01.640Z,98672.39
2023-01-31T07:07:03.742Z,98677.91
2023-01-31T07:12:05.619Z,98678.32
2023-01-31T07:17:07.352Z,98684.92
2023-01-31T07:22:09.067Z,98700.00
2023-01-31T07:27:13.144Z,98647.40
2023-01-31T07:32:14.959Z,98712.71
2023-01-31T07:37:16.866Z,98719.19
2023-01-31T07:42:18.775Z,98746.23
2023-01-31T07:47:20.938Z,98722.30
2023-01-31T07:52:22.817Z,98723.60
2023-01-31T07:57:24.802Z,98729.80
2023-01-31T08:02:46.085Z,98733.34
2023-01-31T08:08:07.888Z,98737.71
2023-01-31T08:13:11.782Z,98749.61
2023-01-31T08:18:13.678Z,98754.09
2023-01-31T08:23:15.450Z,98757.84
2023-01-31T08:28:37.855Z,98764.98
2023-01-31T08:33:39.729Z,98772.70
2023-01-31T08:38:46.950Z,98787.96
2023-01-31T08:43:57.913Z,98794.91
2023-01-31T08:49:05.868Z,98796.90
2023-01-31T08:54:09.743Z,98806.36
2023-01-31T08:59:12.170Z,98806.23
2023-01-31T09:04:13.906Z,98812.80
2023-01-31T09:09:15.647Z,98823.98
2023-01-31T09:14:17.322Z,98827.83
2023-01-31T09:19:19.028Z,98832.22
2023-01-31T09:24:20.994Z,98837.59
2023-01-31T09:29:22.693Z,98842.46
2023-01-31T09:34:24.542Z,98847.34
2023-01-31T09:39:27.187Z,98846.84
2023-01-31T09:44:35.002Z,98849.09
2023-01-31T09:50:00.221Z,98854.47
2023-01-31T09:55:02.168Z,98851.16
2023-01-31T10:00:09.807Z,98856.18
2023-01-31T10:05:39.609Z,98863.14
2023-01-31T10:10:47.442Z,98857.23
2023-01-31T10:16:14.024Z,98860.42
2023-01-31T10:21:20.177Z,98863.08
2023-01-31T10:26:34.730Z,98855.52
2023-01-31T10:31:51.865Z,98849.48
2023-01-31T10:37:01.425Z,98831.36
2023-01-31T10:42:15.668Z,98831.39
2023-01-31T10:47:19.465Z,98828.11
2023-01-31T10:52:38.371Z,98820.45
2023-01-31T10:57:40.744Z,98819.83
2023-01-31T11:02:42.470Z,98816.05
2023-01-31T11:07:44.248Z,98810.89
2023-01-31T11:12:57.852Z,98809.27
2023-01-31T11:18:01.104Z,98805.91
2023-01-31T11:23:06.483Z,98802.48
2023-01-31T11:28:21.583Z,98793.54
2023-01-31T11:33:56.047Z,98793.27
2023-01-31T11:38:57.740Z,98794.34
2023-01-31T11:44:18.252Z,98791.97
2023-01-31T11:49:27.346Z,98791.36
2023-01-31T11:54:31.993Z,98783.34
2023-01-31T11:59:34.671Z,98777.62
2023-01-31T12:04:42.852Z,98768.48
2023-01-31T12:09:44.636Z,98763.04
2023-01-31T12:14:48.065Z,98756.98
2023-01-31T12:20:26.568Z,98757.34
2023-01-31T12:25:43.939Z,98753.07
2023-01-31T12:30:57.866Z,98754.82
2023-01-31T12:36:28.012Z,98760.78
2023-01-31T12:41:35.371Z,98743.38
2023-01-31T12:47:10.084Z,98745.52
2023-01-31T12:52:45.629Z,98738.88
2023-01-31T12:58:04.818Z,98729.39
2023-01-31T13:03:34.162Z,98729.94
2023-01-31T13:08:41.094Z,98729.58
2023-01-31T13:13:50.700Z,98721.23
2023-01-31T13:18:56.444Z,98715.33
2023-01-31T13:24:33.567Z,98717.17
2023-01-31T13:30:04.049Z,98709.24
2023-01-31T13:35:23.611Z,98705.63
2023-01-31T13:40:29.742Z,98710.52
2023-01-31T13:45:43.191Z,98710.82
2023-01-31T13:51:10.708Z,98709.12
2023-01-31T13:56:20.674Z,98715.48
2023-01-31T14:01:28.503Z,98705.95
2023-01-31T14:06:54.958Z,98706.98
2023-01-31T14:11:59.161Z,98701.70
2023-01-31T14:17:00.838Z,98698.67
2023-01-31T14:22:02.455Z,98692.47
2023-01-31T14:27:17.162Z,98682.71
2023-01-31T14:33:01.024Z,98683.63
2023-01-31T14:38:08.559Z,98681.10
2023-01-31T14:43:25.679Z,98676.70
2023-01-31T14:48:45.644Z,98668.89
2023-01-31T14:54:13.593Z,98661.99
2023-01-31T14:59:39.410Z,98668.16
2023-01-31T15:04:41.361Z,98667.42
2023-01-31T15:09:43.270Z,98661.17
2023-01-31T15:14:49.202Z,98658.06
2023-01-31T15:20:02.813Z,98655.20
2023-01-31T15:25:18.824Z,98645.64
2023-01-31T15:30:22.517Z,98650.71
2023-01-31T15:35:30.097Z,98646.02
2023-01-31T15:40:32.035Z,98639.92
2023-01-31T15:45:33.820Z,98624.91
2023-01-31T15:50:36.050Z,98624.06
2023-01-31T15:55:37.913Z,98616.52
2023-01-31T16:00:39.767Z,98612.55
2023-01-31T16:05:43.238Z,98618.13
2023-01-31T16:10:47.722Z,98618.81
2023-01-31T16:15:50.604Z,98623.98
2023-01-31T16:20:55.306Z,98629.73
2023-01-31T16:26:00.145Z,98630.04
2023-01-31T16:31:11.241Z,98637.86
2023-01-31T16:36:18.603Z,98641.89
2023-01-31T16:41:47.517Z,98637.87
2023-01-31T16:46:50.731Z,98636.65
2023-01-31T16:51:57.284Z,98630.83
2023-01-31T16:57:01.917Z,98620.29
2023-01-31T17:02:11.063Z,98613.85
2023-01-31T17:07:27.052Z,98613.46
2023-01-31T17:12:31.614Z,98614.16
2023-01-31T17:17:37.300Z,98612.21
2023-01-31T17:22:39.689Z,98608.95
2023-01-31T17:27:42.269Z,98611.44
2023-01-31T17:32:44.742Z,98610.45
2023-01-31T17:37:47.125Z,98596.11
2023-01-31T17:42:54.045Z,98578.38
2023-01-31T17:47:56.234Z,98575.97
2023-01-31T17:52:58.104Z,98568.30
2023-01-31T17:57:59.846Z,98561.41
2023-01-31T18:03:01.573Z,98556.78
2023-01-31T18:08:05.263Z,98551.89
2023-01-31T18:13:07.536Z,98542.98
2023-01-31T18:18:09.525Z,98534.96
2023-01-31T18:23:11.602Z,98527.02
2023-01-31T18:28:13.331Z,98516.22
2023-01-31T18:33:15.074Z,98517.89
2023-01-31T18:38:17.240Z,98506.17
2023-01-31T18:43:19.921Z,98493.02
2023-01-31T18:48:21.693Z,98486.88
2023-01-31T18:53:23.424Z,98485.48
2023-01-31T18:58:25.309Z,98477.02
2023-01-31T19:03:29.479Z,98469.13
2023-01-31T19:08:31.178Z,98461.14
2023-01-31T19:13:32.894Z,98452.06
2023-01-31T19:18:35.542Z,98450.20
2023-01-31T19:23:38.009Z,98443.84
2023-01-31T19:28:40.699Z,98436.48
2023-01-31T19:33:42.920Z,98427.44
2023-01-31T19:38:44.823Z,98422.36
2023-01-31T19:43:50.004Z,98405.52
2023-01-31T19:48:51.730Z,98404.95
2023-01-31T19:54:01.839Z,98404.92
2023-01-31T19:59:06.240Z,98404.51
2023-01-31T20:04:08.473Z,98397.94
2023-01-31T20:09:14.776Z,98399.15
2023-01-31T20:14:16.655Z,98394.46
2023-01-31T20:19:20.514Z,98398.02
2023-01-31T20:24:22.307Z,98397.09
2023-01-31T20:29:24.291Z,98387.98
2023-01-31T20:34:26.278Z,98387.61
2023-01-31T20:39:31.755Z,98381.69
2023-01-31T20:44:33.871Z,98378.36
2023-01-31T20:49:35.592Z,98376.55
2023-01-31T20:54:37.361Z,98372.02
2023-01-31T20:59:39.884Z,98367.14
2023-01-31T21:04:41.600Z,98358.30
2023-01-31T21:09:43.312Z,98347.69
2023-01-31T21:14:45.057Z,98343.34
2023-01-31T21:19:46.985Z,98336.30
2023-01-31T21:24:48.754Z,98330.86
2023-01-31T21:29:50.745Z,98324.79
2023-01-31T21:34:52.470Z,98335.03
2023-01-31T21:39:54.939Z,98335.76
2023-01-31T21:44:56.609Z,98334.48
2023-01-31T21:49:58.270Z,98330.74
2023-01-31T21:55:00.023Z,98326.63
2023-01-31T22:00:01.974Z,98328.73
2023-01-31T22:05:06.377Z,98326.72
2023-01-31T22:10:08.894Z,98324.55
2023-01-31T22:15:16.148Z,98325.83
2023-01-31T22:20:17.996Z,98320.62
2023-01-31T22:25:19.744Z,98335.02
2023-01-31T22:30:21.804Z,98337.77
2023-01-31T22:35:26.413Z,98331.22
2023-01-31T22:40:28.259Z,98316.02
2023-01-31T22:45:29.963Z,98300.88
2023-01-31T22:50:31.724Z,98293.85
2023-01-31T22:55:42.552Z,98296.55
2023-01-31T23:00:44.336Z,98308.96
2023-01-31T23:05:46.130Z,98310.52
2023-01-31T23:10:47.910Z,98314.46
2023-01-31T23:15:49.623Z,98325.52
2023-01-31T23:20:51.316Z,98333.98
2023-01-31T23:25:53.108Z,98319.34
2023-01-31T23:30:55.156Z,98304.73
2023-01-31T23:35:56.963Z,98301.96
2023-01-31T23:40:58.712Z,98307.31
2023-01-31T23:46:00.445Z,98293.83
2023-01-31T23:51:03.707Z,98294.84
2023-01-31T23:56:06.100Z,98295.80
